sensor_id;sensor_type;location;lat;lon;timestamp;P1;durP1;ratioP1;P2;durP2;ratioP2
42140;SDS011;27809;51.864;5.646;2023-04-01T00:01:58;3.95;;;1.10;;
42140;SDS011;27809;51.864;5.646;2023-04-01T00:04:24;3.92;;;0.70;;
42140;SDS011;27809;51.864;5.646;2023-04-01T00:06:49;1.50;;;0.45;;
42140;SDS011;27809;51.864;5.646;2023-04-01T00:09:16;8.30;;;1.77;;
42140;SDS011;27809;51.864;5.646;2023-04-01T00:11:42;2.83;;;0.90;;
42140;SDS011;27809;51.864;5.646;2023-04-01T00:14:07;5.47;;;1.60;;
42140;SDS011;27809;51.864;5.646;2023-04-01T00:16:33;4.07;;;2.17;;
42140;SDS011;27809;51.864;5.646;2023-04-01T00:18:59;7.82;;;1.35;;
42140;SDS011;27809;51.864;5.646;2023-04-01T00:21:25;4.70;;;1.05;;
42140;SDS011;27809;51.864;5.646;2023-04-01T00:23:51;6.82;;;1.45;;
42140;SDS011;27809;51.864;5.646;2023-04-01T00:26:16;5.78;;;1.40;;
42140;SDS011;27809;51.864;5.646;2023-04-01T00:28:45;10.18;;;1.83;;
42140;SDS011;27809;51.864;5.646;2023-04-01T00:31:11;5.13;;;2.30;;
42140;SDS011;27809;51.864;5.646;2023-04-01T00:33:38;4.50;;;1.98;;
42140;SDS011;27809;51.864;5.646;2023-04-01T00:36:13;4.47;;;2.50;;
42140;SDS011;27809;51.864;5.646;2023-04-01T00:38:41;4.72;;;2.10;;
42140;SDS011;27809;51.864;5.646;2023-04-01T00:41:08;8.07;;;3.38;;
42140;SDS011;27809;51.864;5.646;2023-04-01T00:43:39;4.10;;;2.22;;
42140;SDS011;27809;51.864;5.646;2023-04-01T00:46:05;5.85;;;3.28;;
42140;SDS011;27809;51.864;5.646;2023-04-01T00:48:31;8.93;;;3.17;;
42140;SDS011;27809;51.864;5.646;2023-04-01T00:53:28;7.80;;;3.00;;
42140;SDS011;27809;51.864;5.646;2023-04-01T00:55:57;10.00;;;4.45;;
42140;SDS011;27809;51.864;5.646;2023-04-01T00:58:26;13.60;;;4.13;;
42140;SDS011;27809;51.864;5.646;2023-04-01T01:00:55;5.80;;;3.33;;
42140;SDS011;27809;51.864;5.646;2023-04-01T01:03:22;4.88;;;3.22;;
42140;SDS011;27809;51.864;5.646;2023-04-01T01:11:52;7.07;;;4.32;;
42140;SDS011;27809;51.864;5.646;2023-04-01T01:16:53;8.52;;;3.63;;
42140;SDS011;27809;51.864;5.646;2023-04-01T01:25:00;10.93;;;5.07;;
42140;SDS011;27809;51.864;5.646;2023-04-01T01:27:32;14.07;;;4.47;;
42140;SDS011;27809;51.864;5.646;2023-04-01T01:30:04;7.80;;;5.15;;
42140;SDS011;27809;51.864;5.646;2023-04-01T01:36:06;7.85;;;3.40;;
42140;SDS011;27809;51.864;5.646;2023-04-01T01:38:12;7.72;;;3.40;;
42140;SDS011;27809;51.864;5.646;2023-04-01T01:40:41;9.25;;;4.75;;
42140;SDS011;27809;51.864;5.646;2023-04-01T01:43:11;9.55;;;3.85;;
42140;SDS011;27809;51.864;5.646;2023-04-01T01:45:43;9.25;;;3.22;;
42140;SDS011;27809;51.864;5.646;2023-04-01T01:48:13;6.97;;;1.98;;
42140;SDS011;27809;51.864;5.646;2023-04-01T01:50:41;5.78;;;2.85;;
42140;SDS011;27809;51.864;5.646;2023-04-01T01:53:10;6.45;;;2.20;;
42140;SDS011;27809;51.864;5.646;2023-04-01T01:55:38;6.32;;;3.05;;
42140;SDS011;27809;51.864;5.646;2023-04-01T01:58:16;5.93;;;1.85;;
42140;SDS011;27809;51.864;5.646;2023-04-01T02:00:51;8.35;;;2.92;;
42140;SDS011;27809;51.864;5.646;2023-04-01T02:03:20;12.00;;;3.05;;
42140;SDS011;27809;51.864;5.646;2023-04-01T02:05:48;3.58;;;2.30;;
42140;SDS011;27809;51.864;5.646;2023-04-01T02:08:17;6.07;;;2.80;;
42140;SDS011;27809;51.864;5.646;2023-04-01T02:11:00;8.23;;;2.63;;
42140;SDS011;27809;51.864;5.646;2023-04-01T02:16:11;5.95;;;2.55;;
42140;SDS011;27809;51.864;5.646;2023-04-01T02:18:42;4.03;;;1.50;;
42140;SDS011;27809;51.864;5.646;2023-04-01T02:21:10;2.45;;;1.02;;
42140;SDS011;27809;51.864;5.646;2023-04-01T02:23:37;6.43;;;2.17;;
42140;SDS011;27809;51.864;5.646;2023-04-01T02:26:05;3.08;;;1.40;;
42140;SDS011;27809;51.864;5.646;2023-04-01T02:28:33;4.75;;;1.27;;
42140;SDS011;27809;51.864;5.646;2023-04-01T02:31:01;3.33;;;1.73;;
42140;SDS011;27809;51.864;5.646;2023-04-01T02:33:28;10.55;;;2.78;;
42140;SDS011;27809;51.864;5.646;2023-04-01T02:35:55;10.30;;;1.55;;
42140;SDS011;27809;51.864;5.646;2023-04-01T02:38:21;2.45;;;1.25;;
42140;SDS011;27809;51.864;5.646;2023-04-01T02:40:48;7.53;;;1.75;;
42140;SDS011;27809;51.864;5.646;2023-04-01T02:43:15;3.35;;;1.50;;
42140;SDS011;27809;51.864;5.646;2023-04-01T02:45:42;2.83;;;1.40;;
42140;SDS011;27809;51.864;5.646;2023-04-01T02:48:08;5.75;;;1.70;;
42140;SDS011;27809;51.864;5.646;2023-04-01T02:50:34;3.67;;;1.48;;
42140;SDS011;27809;51.864;5.646;2023-04-01T02:53:00;5.55;;;2.15;;
42140;SDS011;27809;51.864;5.646;2023-04-01T02:55:25;3.85;;;2.15;;
42140;SDS011;27809;51.864;5.646;2023-04-01T02:57:51;6.18;;;1.40;;
42140;SDS011;27809;51.864;5.646;2023-04-01T03:00:17;2.63;;;1.67;;
42140;SDS011;27809;51.864;5.646;2023-04-01T03:02:42;4.53;;;1.92;;
42140;SDS011;27809;51.864;5.646;2023-04-01T03:05:09;2.33;;;1.60;;
42140;SDS011;27809;51.864;5.646;2023-04-01T03:07:35;5.82;;;1.50;;
42140;SDS011;27809;51.864;5.646;2023-04-01T03:10:00;5.57;;;1.30;;
42140;SDS011;27809;51.864;5.646;2023-04-01T03:12:26;2.78;;;1.52;;
42140;SDS011;27809;51.864;5.646;2023-04-01T03:14:52;4.63;;;1.30;;
42140;SDS011;27809;51.864;5.646;2023-04-01T03:17:17;6.78;;;1.25;;
42140;SDS011;27809;51.864;5.646;2023-04-01T03:19:43;3.65;;;1.60;;
42140;SDS011;27809;51.864;5.646;2023-04-01T03:22:10;4.13;;;1.52;;
42140;SDS011;27809;51.864;5.646;2023-04-01T03:24:36;4.40;;;2.05;;
42140;SDS011;27809;51.864;5.646;2023-04-01T03:27:01;10.82;;;3.47;;
42140;SDS011;27809;51.864;5.646;2023-04-01T03:29:27;6.10;;;2.45;;
42140;SDS011;27809;51.864;5.646;2023-04-01T03:31:53;6.10;;;2.95;;
42140;SDS011;27809;51.864;5.646;2023-04-01T03:34:18;6.22;;;2.83;;
42140;SDS011;27809;51.864;5.646;2023-04-01T03:36:44;7.28;;;3.15;;
42140;SDS011;27809;51.864;5.646;2023-04-01T03:39:09;5.00;;;2.00;;
42140;SDS011;27809;51.864;5.646;2023-04-01T03:41:36;4.20;;;2.47;;
42140;SDS011;27809;51.864;5.646;2023-04-01T03:44:02;4.65;;;2.30;;
42140;SDS011;27809;51.864;5.646;2023-04-01T03:46:28;5.35;;;2.30;;
42140;SDS011;27809;51.864;5.646;2023-04-01T03:48:54;7.65;;;2.17;;
42140;SDS011;27809;51.864;5.646;2023-04-01T03:51:20;4.72;;;2.85;;
42140;SDS011;27809;51.864;5.646;2023-04-01T03:53:45;5.32;;;2.20;;
42140;SDS011;27809;51.864;5.646;2023-04-01T03:56:11;4.57;;;2.67;;
42140;SDS011;27809;51.864;5.646;2023-04-01T03:58:36;6.30;;;2.30;;
42140;SDS011;27809;51.864;5.646;2023-04-01T04:01:12;5.78;;;2.67;;
42140;SDS011;27809;51.864;5.646;2023-04-01T04:03:38;6.05;;;3.42;;
42140;SDS011;27809;51.864;5.646;2023-04-01T04:06:04;5.78;;;3.08;;
42140;SDS011;27809;51.864;5.646;2023-04-01T04:08:29;8.05;;;3.83;;
42140;SDS011;27809;51.864;5.646;2023-04-01T04:10:55;8.98;;;3.95;;
42140;SDS011;27809;51.864;5.646;2023-04-01T04:13:21;5.60;;;2.80;;
42140;SDS011;27809;51.864;5.646;2023-04-01T04:15:46;6.75;;;2.85;;
42140;SDS011;27809;51.864;5.646;2023-04-01T04:18:12;7.75;;;3.60;;
42140;SDS011;27809;51.864;5.646;2023-04-01T04:20:43;7.70;;;4.03;;
42140;SDS011;27809;51.864;5.646;2023-04-01T04:25:36;7.85;;;3.03;;
42140;SDS011;27809;51.864;5.646;2023-04-01T04:28:01;8.13;;;3.35;;
42140;SDS011;27809;51.864;5.646;2023-04-01T04:30:26;11.07;;;4.30;;
42140;SDS011;27809;51.864;5.646;2023-04-01T04:32:52;7.75;;;4.00;;
42140;SDS011;27809;51.864;5.646;2023-04-01T04:35:18;6.35;;;4.30;;
42140;SDS011;27809;51.864;5.646;2023-04-01T04:37:43;7.40;;;3.90;;
42140;SDS011;27809;51.864;5.646;2023-04-01T04:40:09;6.68;;;3.95;;
42140;SDS011;27809;51.864;5.646;2023-04-01T04:42:35;6.97;;;3.17;;
42140;SDS011;27809;51.864;5.646;2023-04-01T04:45:00;10.68;;;3.97;;
42140;SDS011;27809;51.864;5.646;2023-04-01T04:47:26;4.88;;;2.85;;
42140;SDS011;27809;51.864;5.646;2023-04-01T04:49:51;12.85;;;4.10;;
42140;SDS011;27809;51.864;5.646;2023-04-01T04:52:17;6.20;;;3.83;;
42140;SDS011;27809;51.864;5.646;2023-04-01T04:54:42;6.75;;;3.60;;
42140;SDS011;27809;51.864;5.646;2023-04-01T04:57:08;10.02;;;4.22;;
42140;SDS011;27809;51.864;5.646;2023-04-01T04:59:33;9.35;;;3.47;;
42140;SDS011;27809;51.864;5.646;2023-04-01T05:01:59;4.90;;;2.53;;
42140;SDS011;27809;51.864;5.646;2023-04-01T05:04:24;6.70;;;3.22;;
42140;SDS011;27809;51.864;5.646;2023-04-01T05:06:50;6.15;;;3.67;;
42140;SDS011;27809;51.864;5.646;2023-04-01T05:09:16;5.70;;;3.13;;
42140;SDS011;27809;51.864;5.646;2023-04-01T05:11:42;5.35;;;3.13;;
42140;SDS011;27809;51.864;5.646;2023-04-01T05:14:11;6.18;;;2.97;;
42140;SDS011;27809;51.864;5.646;2023-04-01T05:16:38;6.10;;;3.58;;
42140;SDS011;27809;51.864;5.646;2023-04-01T05:19:03;10.55;;;4.22;;
42140;SDS011;27809;51.864;5.646;2023-04-01T05:21:29;7.70;;;5.15;;
42140;SDS011;27809;51.864;5.646;2023-04-01T05:23:55;8.57;;;4.45;;
42140;SDS011;27809;51.864;5.646;2023-04-01T05:26:20;8.43;;;4.10;;
42140;SDS011;27809;51.864;5.646;2023-04-01T05:28:46;9.73;;;4.35;;
42140;SDS011;27809;51.864;5.646;2023-04-01T05:31:11;8.63;;;4.57;;
42140;SDS011;27809;51.864;5.646;2023-04-01T05:33:37;8.95;;;4.38;;
42140;SDS011;27809;51.864;5.646;2023-04-01T05:36:06;15.80;;;7.38;;
42140;SDS011;27809;51.864;5.646;2023-04-01T05:38:36;14.68;;;5.75;;
42140;SDS011;27809;51.864;5.646;2023-04-01T05:41:02;11.13;;;6.30;;
42140;SDS011;27809;51.864;5.646;2023-04-01T05:43:28;18.42;;;5.78;;
42140;SDS011;27809;51.864;5.646;2023-04-01T05:45:54;13.68;;;5.05;;
42140;SDS011;27809;51.864;5.646;2023-04-01T05:48:20;6.43;;;3.75;;
42140;SDS011;27809;51.864;5.646;2023-04-01T05:50:45;13.18;;;4.32;;
42140;SDS011;27809;51.864;5.646;2023-04-01T05:53:11;11.82;;;4.47;;
42140;SDS011;27809;51.864;5.646;2023-04-01T05:55:36;9.68;;;3.30;;
42140;SDS011;27809;51.864;5.646;2023-04-01T05:58:02;10.27;;;4.13;;
42140;SDS011;27809;51.864;5.646;2023-04-01T06:00:28;10.05;;;4.80;;
42140;SDS011;27809;51.864;5.646;2023-04-01T06:02:53;10.15;;;3.90;;
42140;SDS011;27809;51.864;5.646;2023-04-01T06:05:20;10.57;;;4.95;;
42140;SDS011;27809;51.864;5.646;2023-04-01T06:07:48;12.73;;;5.75;;
42140;SDS011;27809;51.864;5.646;2023-04-01T06:10:20;9.88;;;4.65;;
42140;SDS011;27809;51.864;5.646;2023-04-01T06:15:32;11.10;;;5.55;;
42140;SDS011;27809;51.864;5.646;2023-04-01T06:23:29;10.43;;;5.40;;
42140;SDS011;27809;51.864;5.646;2023-04-01T06:37:08;19.63;;;8.38;;
42140;SDS011;27809;51.864;5.646;2023-04-01T06:42:58;19.15;;;8.05;;
42140;SDS011;27809;51.864;5.646;2023-04-01T06:45:44;19.90;;;9.35;;
42140;SDS011;27809;51.864;5.646;2023-04-01T06:48:42;17.50;;;8.93;;
42140;SDS011;27809;51.864;5.646;2023-04-01T06:51:34;22.90;;;8.60;;
42140;SDS011;27809;51.864;5.646;2023-04-01T06:54:17;24.27;;;9.43;;
42140;SDS011;27809;51.864;5.646;2023-04-01T06:56:57;23.02;;;10.20;;
42140;SDS011;27809;51.864;5.646;2023-04-01T06:59:27;19.15;;;9.57;;
42140;SDS011;27809;51.864;5.646;2023-04-01T07:01:55;19.60;;;8.95;;
42140;SDS011;27809;51.864;5.646;2023-04-01T07:04:38;13.80;;;7.50;;
42140;SDS011;27809;51.864;5.646;2023-04-01T07:07:16;12.35;;;6.53;;
42140;SDS011;27809;51.864;5.646;2023-04-01T07:09:48;18.50;;;9.20;;
42140;SDS011;27809;51.864;5.646;2023-04-01T07:15:02;12.38;;;6.75;;
42140;SDS011;27809;51.864;5.646;2023-04-01T07:18:12;17.55;;;7.63;;
42140;SDS011;27809;51.864;5.646;2023-04-01T07:20:43;15.25;;;7.43;;
42140;SDS011;27809;51.864;5.646;2023-04-01T07:23:44;15.90;;;7.65;;
42140;SDS011;27809;51.864;5.646;2023-04-01T07:26:23;17.27;;;7.85;;
42140;SDS011;27809;51.864;5.646;2023-04-01T07:28:51;14.73;;;7.80;;
42140;SDS011;27809;51.864;5.646;2023-04-01T07:31:20;15.43;;;6.72;;
42140;SDS011;27809;51.864;5.646;2023-04-01T07:34:19;15.40;;;6.43;;
42140;SDS011;27809;51.864;5.646;2023-04-01T07:37:04;11.95;;;5.88;;
42140;SDS011;27809;51.864;5.646;2023-04-01T07:39:51;16.25;;;7.28;;
42140;SDS011;27809;51.864;5.646;2023-04-01T07:48:33;14.60;;;6.88;;
42140;SDS011;27809;51.864;5.646;2023-04-01T07:51:29;18.20;;;6.40;;
42140;SDS011;27809;51.864;5.646;2023-04-01T08:05:29;13.05;;;4.65;;
42140;SDS011;27809;51.864;5.646;2023-04-01T08:10:52;16.63;;;6.60;;
42140;SDS011;27809;51.864;5.646;2023-04-01T08:19:30;14.60;;;6.43;;
42140;SDS011;27809;51.864;5.646;2023-04-01T08:22:03;9.38;;;4.10;;
42140;SDS011;27809;51.864;5.646;2023-04-01T08:24:43;10.02;;;4.75;;
42140;SDS011;27809;51.864;5.646;2023-04-01T08:27:19;9.35;;;5.18;;
42140;SDS011;27809;51.864;5.646;2023-04-01T08:29:53;11.25;;;6.03;;
42140;SDS011;27809;51.864;5.646;2023-04-01T08:32:41;11.38;;;6.85;;
42140;SDS011;27809;51.864;5.646;2023-04-01T08:35:31;11.43;;;5.25;;
42140;SDS011;27809;51.864;5.646;2023-04-01T08:38:06;12.88;;;5.20;;
42140;SDS011;27809;51.864;5.646;2023-04-01T08:40:49;12.93;;;6.03;;
42140;SDS011;27809;51.864;5.646;2023-04-01T08:46:37;11.98;;;4.88;;
42140;SDS011;27809;51.864;5.646;2023-04-01T08:49:25;9.48;;;5.03;;
42140;SDS011;27809;51.864;5.646;2023-04-01T08:54:56;9.75;;;5.05;;
42140;SDS011;27809;51.864;5.646;2023-04-01T09:13:16;11.15;;;5.25;;
42140;SDS011;27809;51.864;5.646;2023-04-01T09:18:56;15.05;;;6.15;;
42140;SDS011;27809;51.864;5.646;2023-04-01T09:21:44;13.75;;;5.20;;
42140;SDS011;27809;51.864;5.646;2023-04-01T09:24:45;11.60;;;5.60;;
42140;SDS011;27809;51.864;5.646;2023-04-01T09:36:07;11.45;;;6.25;;
42140;SDS011;27809;51.864;5.646;2023-04-01T09:38:57;17.60;;;5.88;;
42140;SDS011;27809;51.864;5.646;2023-04-01T09:44:29;11.40;;;6.05;;
42140;SDS011;27809;51.864;5.646;2023-04-01T09:50:23;15.50;;;6.55;;
42140;SDS011;27809;51.864;5.646;2023-04-01T09:56:12;17.48;;;7.30;;
42140;SDS011;27809;51.864;5.646;2023-04-01T10:05:22;19.90;;;8.77;;
42140;SDS011;27809;51.864;5.646;2023-04-01T10:21:47;20.27;;;10.85;;
42140;SDS011;27809;51.864;5.646;2023-04-01T10:24:45;14.07;;;8.13;;
42140;SDS011;27809;51.864;5.646;2023-04-01T10:27:22;14.53;;;7.77;;
42140;SDS011;27809;51.864;5.646;2023-04-01T10:36:09;19.27;;;8.48;;
42140;SDS011;27809;51.864;5.646;2023-04-01T10:59:15;14.45;;;6.35;;
42140;SDS011;27809;51.864;5.646;2023-04-01T11:13:29;10.75;;;4.35;;
42140;SDS011;27809;51.864;5.646;2023-04-01T11:27:07;11.68;;;5.15;;
42140;SDS011;27809;51.864;5.646;2023-04-01T11:32:39;10.35;;;6.03;;
42140;SDS011;27809;51.864;5.646;2023-04-01T11:38:15;11.23;;;5.90;;
42140;SDS011;27809;51.864;5.646;2023-04-01T11:43:42;10.75;;;5.38;;
42140;SDS011;27809;51.864;5.646;2023-04-01T11:46:19;9.50;;;5.10;;
42140;SDS011;27809;51.864;5.646;2023-04-01T11:49:22;6.88;;;4.90;;
42140;SDS011;27809;51.864;5.646;2023-04-01T12:05:54;3.22;;;1.25;;
42140;SDS011;27809;51.864;5.646;2023-04-01T12:11:00;3.90;;;2.13;;
42140;SDS011;27809;51.864;5.646;2023-04-01T12:14:02;2.67;;;1.60;;
42140;SDS011;27809;51.864;5.646;2023-04-01T12:22:23;3.67;;;2.10;;
42140;SDS011;27809;51.864;5.646;2023-04-01T12:25:02;4.25;;;2.53;;
42140;SDS011;27809;51.864;5.646;2023-04-01T12:27:48;5.57;;;2.88;;
42140;SDS011;27809;51.864;5.646;2023-04-01T12:33:15;5.32;;;2.13;;
42140;SDS011;27809;51.864;5.646;2023-04-01T12:47:44;2.20;;;1.13;;
42140;SDS011;27809;51.864;5.646;2023-04-01T12:56:09;0.50;;;0.30;;
42140;SDS011;27809;51.864;5.646;2023-04-01T13:01:56;1.92;;;1.00;;
42140;SDS011;27809;51.864;5.646;2023-04-01T13:04:39;1.90;;;1.15;;
42140;SDS011;27809;51.864;5.646;2023-04-01T13:07:28;2.22;;;1.42;;
42140;SDS011;27809;51.864;5.646;2023-04-01T13:10:13;2.88;;;1.95;;
42140;SDS011;27809;51.864;5.646;2023-04-01T13:20:41;3.72;;;1.83;;
42140;SDS011;27809;51.864;5.646;2023-04-01T13:23:40;1.88;;;0.93;;
42140;SDS011;27809;51.864;5.646;2023-04-01T13:40:33;0.68;;;0.13;;
42140;SDS011;27809;51.864;5.646;2023-04-01T13:43:23;0.57;;;0.20;;
42140;SDS011;27809;51.864;5.646;2023-04-01T13:59:37;1.35;;;0.63;;
42140;SDS011;27809;51.864;5.646;2023-04-01T14:05:01;2.78;;;0.45;;
42140;SDS011;27809;51.864;5.646;2023-04-01T14:08:07;3.07;;;1.37;;
42140;SDS011;27809;51.864;5.646;2023-04-01T14:16:22;2.83;;;1.60;;
42140;SDS011;27809;51.864;5.646;2023-04-01T14:19:03;2.72;;;1.27;;
42140;SDS011;27809;51.864;5.646;2023-04-01T14:21:54;7.15;;;2.17;;
42140;SDS011;27809;51.864;5.646;2023-04-01T14:30:46;4.57;;;1.98;;
42140;SDS011;27809;51.864;5.646;2023-04-01T14:36:28;3.28;;;1.67;;
42140;SDS011;27809;51.864;5.646;2023-04-01T14:42:23;4.75;;;2.22;;
42140;SDS011;27809;51.864;5.646;2023-04-01T14:50:14;1.40;;;0.40;;
42140;SDS011;27809;51.864;5.646;2023-04-01T14:55:28;1.20;;;0.70;;
42140;SDS011;27809;51.864;5.646;2023-04-01T14:57:59;2.58;;;0.77;;
42140;SDS011;27809;51.864;5.646;2023-04-01T15:00:37;5.22;;;1.17;;
42140;SDS011;27809;51.864;5.646;2023-04-01T15:03:34;1.30;;;0.77;;
42140;SDS011;27809;51.864;5.646;2023-04-01T15:08:51;6.18;;;1.92;;
42140;SDS011;27809;51.864;5.646;2023-04-01T15:11:56;1.90;;;1.02;;
42140;SDS011;27809;51.864;5.646;2023-04-01T15:15:10;2.33;;;1.08;;
42140;SDS011;27809;51.864;5.646;2023-04-01T15:18:03;2.20;;;0.63;;
42140;SDS011;27809;51.864;5.646;2023-04-01T15:20:56;2.35;;;1.02;;
42140;SDS011;27809;51.864;5.646;2023-04-01T15:41:10;3.47;;;1.05;;
42140;SDS011;27809;51.864;5.646;2023-04-01T15:43:44;4.60;;;1.45;;
42140;SDS011;27809;51.864;5.646;2023-04-01T15:46:16;3.53;;;1.15;;
42140;SDS011;27809;51.864;5.646;2023-04-01T15:51:47;1.70;;;0.90;;
42140;SDS011;27809;51.864;5.646;2023-04-01T16:02:48;7.95;;;2.10;;
42140;SDS011;27809;51.864;5.646;2023-04-01T16:13:55;2.03;;;0.60;;
42140;SDS011;27809;51.864;5.646;2023-04-01T16:19:58;2.85;;;1.00;;
42140;SDS011;27809;51.864;5.646;2023-04-01T16:25:17;2.00;;;0.98;;
42140;SDS011;27809;51.864;5.646;2023-04-01T16:41:58;1.20;;;0.65;;
42140;SDS011;27809;51.864;5.646;2023-04-01T16:44:59;1.95;;;0.85;;
42140;SDS011;27809;51.864;5.646;2023-04-01T16:47:30;1.75;;;0.95;;
42140;SDS011;27809;51.864;5.646;2023-04-01T16:55:34;2.60;;;1.08;;
42140;SDS011;27809;51.864;5.646;2023-04-01T16:58:09;1.90;;;1.00;;
42140;SDS011;27809;51.864;5.646;2023-04-01T17:00:41;1.83;;;0.63;;
42140;SDS011;27809;51.864;5.646;2023-04-01T17:03:20;2.00;;;1.20;;
42140;SDS011;27809;51.864;5.646;2023-04-01T17:11:41;3.83;;;1.20;;
42140;SDS011;27809;51.864;5.646;2023-04-01T17:14:28;3.35;;;1.00;;
42140;SDS011;27809;51.864;5.646;2023-04-01T17:17:08;2.58;;;1.48;;
42140;SDS011;27809;51.864;5.646;2023-04-01T17:19:48;2.50;;;1.63;;
42140;SDS011;27809;51.864;5.646;2023-04-01T17:22:29;1.85;;;0.98;;
42140;SDS011;27809;51.864;5.646;2023-04-01T17:25:14;3.42;;;1.67;;
42140;SDS011;27809;51.864;5.646;2023-04-01T17:27:51;1.60;;;0.73;;
42140;SDS011;27809;51.864;5.646;2023-04-01T17:44:19;2.33;;;1.00;;
42140;SDS011;27809;51.864;5.646;2023-04-01T17:46:56;2.53;;;1.45;;
42140;SDS011;27809;51.864;5.646;2023-04-01T17:58:40;2.28;;;1.27;;
42140;SDS011;27809;51.864;5.646;2023-04-01T18:12:43;2.53;;;1.63;;
42140;SDS011;27809;51.864;5.646;2023-04-01T18:15:40;3.50;;;1.75;;
42140;SDS011;27809;51.864;5.646;2023-04-01T18:21:19;3.50;;;1.70;;
42140;SDS011;27809;51.864;5.646;2023-04-01T18:26:42;2.83;;;1.67;;
42140;SDS011;27809;51.864;5.646;2023-04-01T18:29:22;3.28;;;1.75;;
42140;SDS011;27809;51.864;5.646;2023-04-01T18:32:42;3.25;;;1.38;;
42140;SDS011;27809;51.864;5.646;2023-04-01T18:37:39;3.03;;;1.25;;
42140;SDS011;27809;51.864;5.646;2023-04-01T18:50:53;4.43;;;1.90;;
42140;SDS011;27809;51.864;5.646;2023-04-01T18:53:39;3.83;;;1.35;;
42140;SDS011;27809;51.864;5.646;2023-04-01T18:56:13;4.07;;;1.58;;
42140;SDS011;27809;51.864;5.646;2023-04-01T18:59:04;2.97;;;1.60;;
42140;SDS011;27809;51.864;5.646;2023-04-01T19:01:47;3.88;;;2.50;;
42140;SDS011;27809;51.864;5.646;2023-04-01T19:04:32;3.72;;;2.00;;
42140;SDS011;27809;51.864;5.646;2023-04-01T19:10:13;3.05;;;1.73;;
42140;SDS011;27809;51.864;5.646;2023-04-01T19:13:02;4.55;;;2.20;;
42140;SDS011;27809;51.864;5.646;2023-04-01T19:18:28;4.32;;;2.70;;
42140;SDS011;27809;51.864;5.646;2023-04-01T19:26:28;8.93;;;3.45;;
42140;SDS011;27809;51.864;5.646;2023-04-01T19:29:00;5.30;;;3.08;;
42140;SDS011;27809;51.864;5.646;2023-04-01T19:42:30;4.90;;;2.47;;
42140;SDS011;27809;51.864;5.646;2023-04-01T19:50:29;3.88;;;2.47;;
42140;SDS011;27809;51.864;5.646;2023-04-01T19:53:17;4.07;;;2.63;;
42140;SDS011;27809;51.864;5.646;2023-04-01T19:56:15;4.65;;;3.15;;
42140;SDS011;27809;51.864;5.646;2023-04-01T19:58:51;4.65;;;2.67;;
42140;SDS011;27809;51.864;5.646;2023-04-01T20:01:48;4.90;;;2.67;;
42140;SDS011;27809;51.864;5.646;2023-04-01T20:04:29;3.92;;;1.95;;
42140;SDS011;27809;51.864;5.646;2023-04-01T20:15:36;3.83;;;2.53;;
42140;SDS011;27809;51.864;5.646;2023-04-01T20:18:12;4.28;;;2.22;;
42140;SDS011;27809;51.864;5.646;2023-04-01T20:21:02;4.17;;;1.93;;
42140;SDS011;27809;51.864;5.646;2023-04-01T20:26:08;2.85;;;1.48;;
42140;SDS011;27809;51.864;5.646;2023-04-01T20:31:29;3.17;;;1.73;;
42140;SDS011;27809;51.864;5.646;2023-04-01T20:48:20;5.05;;;2.90;;
42140;SDS011;27809;51.864;5.646;2023-04-01T20:51:06;5.13;;;2.28;;
42140;SDS011;27809;51.864;5.646;2023-04-01T20:53:50;4.88;;;2.17;;
42140;SDS011;27809;51.864;5.646;2023-04-01T20:56:37;4.55;;;2.85;;
42140;SDS011;27809;51.864;5.646;2023-04-01T21:02:00;4.40;;;2.40;;
42140;SDS011;27809;51.864;5.646;2023-04-01T21:05:04;4.82;;;2.58;;
42140;SDS011;27809;51.864;5.646;2023-04-01T21:07:55;3.70;;;2.33;;
42140;SDS011;27809;51.864;5.646;2023-04-01T21:16:08;4.63;;;2.90;;
42140;SDS011;27809;51.864;5.646;2023-04-01T21:19:30;5.80;;;3.58;;
42140;SDS011;27809;51.864;5.646;2023-04-01T21:22:01;5.85;;;3.50;;
42140;SDS011;27809;51.864;5.646;2023-04-01T21:32:58;5.72;;;3.70;;
42140;SDS011;27809;51.864;5.646;2023-04-01T21:43:28;6.78;;;4.07;;
42140;SDS011;27809;51.864;5.646;2023-04-01T21:54:43;8.38;;;4.15;;
42140;SDS011;27809;51.864;5.646;2023-04-01T22:06:22;7.40;;;3.08;;
42140;SDS011;27809;51.864;5.646;2023-04-01T22:09:03;6.40;;;4.05;;
42140;SDS011;27809;51.864;5.646;2023-04-01T22:11:41;9.05;;;3.97;;
42140;SDS011;27809;51.864;5.646;2023-04-01T22:14:21;7.80;;;4.70;;
42140;SDS011;27809;51.864;5.646;2023-04-01T22:16:57;6.30;;;4.15;;
42140;SDS011;27809;51.864;5.646;2023-04-01T22:25:06;7.28;;;3.75;;
42140;SDS011;27809;51.864;5.646;2023-04-01T22:27:45;5.15;;;3.42;;
42140;SDS011;27809;51.864;5.646;2023-04-01T22:30:23;5.75;;;3.08;;
42140;SDS011;27809;51.864;5.646;2023-04-01T22:32:56;6.70;;;3.65;;
42140;SDS011;27809;51.864;5.646;2023-04-01T22:38:59;8.25;;;4.70;;
42140;SDS011;27809;51.864;5.646;2023-04-01T22:41:58;6.53;;;4.28;;
42140;SDS011;27809;51.864;5.646;2023-04-01T22:50:19;5.60;;;2.97;;
42140;SDS011;27809;51.864;5.646;2023-04-01T22:53:14;7.53;;;3.22;;
42140;SDS011;27809;51.864;5.646;2023-04-01T22:56:01;6.68;;;2.60;;
42140;SDS011;27809;51.864;5.646;2023-04-01T22:58:33;6.85;;;3.30;;
42140;SDS011;27809;51.864;5.646;2023-04-01T23:01:05;6.90;;;3.65;;
42140;SDS011;27809;51.864;5.646;2023-04-01T23:03:36;4.07;;;2.73;;
42140;SDS011;27809;51.864;5.646;2023-04-01T23:06:06;4.30;;;2.50;;
42140;SDS011;27809;51.864;5.646;2023-04-01T23:08:43;4.55;;;2.50;;
42140;SDS011;27809;51.864;5.646;2023-04-01T23:16:19;3.63;;;2.08;;
42140;SDS011;27809;51.864;5.646;2023-04-01T23:24:21;5.40;;;2.83;;
42140;SDS011;27809;51.864;5.646;2023-04-01T23:26:56;3.47;;;2.30;;
42140;SDS011;27809;51.864;5.646;2023-04-01T23:29:30;5.22;;;3.10;;
42140;SDS011;27809;51.864;5.646;2023-04-01T23:32:01;5.13;;;3.67;;
42140;SDS011;27809;51.864;5.646;2023-04-01T23:34:29;4.50;;;2.85;;
42140;SDS011;27809;51.864;5.646;2023-04-01T23:39:39;5.35;;;3.25;;
42140;SDS011;27809;51.864;5.646;2023-04-01T23:44:50;6.22;;;3.53;;
42140;SDS011;27809;51.864;5.646;2023-04-01T23:47:26;6.82;;;3.28;;
42140;SDS011;27809;51.864;5.646;2023-04-01T23:50:03;6.05;;;3.45;;
42140;SDS011;27809;51.864;5.646;2023-04-01T23:53:00;6.78;;;3.92;;
42140;SDS011;27809;51.864;5.646;2023-04-01T23:55:32;7.85;;;4.50;;
